createdAt,value
2019-03-05T00:02:05.668Z,2.70
2019-03-05T00:04:35.066Z,4.65
2019-03-05T00:07:04.434Z,3.10
2019-03-05T00:09:33.759Z,3.47
2019-03-05T00:12:03.144Z,4.60
2019-03-05T00:14:32.476Z,3.55
2019-03-05T00:17:01.808Z,4.15
2019-03-05T00:19:31.231Z,4.55
2019-03-05T00:22:00.643Z,4.08
2019-03-05T00:24:58.486Z,4.20
2019-03-05T00:27:28.874Z,4.05
2019-03-05T00:30:23.968Z,3.62
2019-03-05T00:32:58.492Z,2.83
2019-03-05T00:36:27.111Z,2.95
2019-03-05T00:39:35.714Z,2.55
2019-03-05T00:42:47.438Z,2.90
2019-03-05T00:46:04.044Z,3.15
2019-03-05T00:49:00.554Z,3.58
2019-03-05T00:52:07.725Z,3.45
2019-03-05T00:55:03.873Z,4.00
2019-03-05T00:58:00.888Z,3.58
2019-03-05T01:00:56.934Z,3.62
2019-03-05T01:03:44.147Z,3.20
2019-03-05T01:06:23.046Z,5.72
2019-03-05T01:08:54.539Z,3.65
2019-03-05T01:11:24.874Z,3.47
2019-03-05T01:13:54.348Z,3.58
2019-03-05T01:16:28.603Z,3.62
2019-03-05T01:18:58.454Z,3.65
2019-03-05T01:21:27.779Z,3.95
2019-03-05T01:26:26.527Z,3.87
2019-03-05T01:28:55.846Z,4.10
2019-03-05T01:31:44.205Z,4.70
2019-03-05T01:34:21.591Z,3.80
2019-03-05T01:36:55.238Z,4.40
2019-03-05T01:39:45.070Z,4.05
2019-03-05T06:15:50.144Z,1.20
2019-03-05T06:18:19.462Z,1.52
2019-03-05T06:20:48.794Z,1.02
2019-03-05T06:23:18.171Z,2.02
2019-03-05T06:25:47.508Z,1.30
2019-03-05T06:28:16.832Z,1.98
2019-03-05T06:30:46.266Z,1.07
2019-03-05T06:33:15.648Z,1.72
2019-03-05T06:35:44.994Z,1.55
2019-03-05T06:38:14.391Z,1.32
2019-03-05T06:40:43.715Z,2.10
2019-03-05T06:43:13.055Z,1.20
2019-03-05T06:45:42.607Z,1.57
2019-03-05T06:48:11.946Z,1.15
2019-03-05T06:50:41.288Z,2.45
2019-03-05T06:53:10.632Z,1.50
2019-03-05T06:55:39.994Z,1.85
2019-03-05T06:58:11.682Z,1.17
2019-03-05T07:00:40.801Z,1.72
2019-03-05T07:03:10.649Z,1.50
2019-03-05T07:06:15.422Z,1.15
2019-03-05T07:09:21.266Z,0.98
2019-03-05T07:12:15.358Z,1.12
2019-03-05T07:15:12.027Z,2.02
2019-03-05T07:17:45.474Z,1.47
2019-03-05T07:20:53.575Z,1.20
2019-03-05T07:23:55.415Z,1.22
2019-03-05T07:26:25.019Z,1.30
2019-03-05T07:28:54.637Z,1.70
2019-03-05T07:31:24.030Z,1.10
2019-03-05T07:33:53.364Z,0.82
2019-03-05T07:36:22.706Z,0.90
2019-03-05T07:38:52.039Z,1.15
2019-03-05T07:41:21.374Z,0.85
2019-03-05T07:43:50.765Z,0.68
2019-03-05T07:46:20.447Z,2.40
2019-03-05T07:48:49.819Z,1.32
2019-03-05T07:51:19.151Z,1.20
2019-03-05T07:53:48.522Z,1.47
2019-03-05T07:56:18.267Z,2.33
2019-03-05T07:58:47.594Z,0.98
2019-03-05T08:01:22.165Z,1.15
2019-03-05T08:03:47.991Z,1.32
2019-03-05T08:06:17.322Z,1.47
2019-03-05T08:09:21.879Z,1.17
2019-03-05T08:11:51.254Z,0.80
2019-03-05T08:14:46.718Z,0.95
2019-03-05T08:17:16.180Z,2.08
2019-03-05T08:19:45.518Z,0.90
2019-03-05T08:22:14.959Z,0.90
2019-03-05T08:24:44.279Z,1.00
2019-03-05T08:27:14.028Z,0.68
2019-03-05T08:29:43.456Z,0.80
2019-03-05T08:32:12.865Z,0.68
2019-03-05T08:34:42.209Z,0.80
2019-03-05T08:37:13.482Z,1.37
2019-03-05T08:39:43.083Z,1.07
2019-03-05T08:42:12.442Z,1.00
2019-03-05T08:44:49.930Z,0.90
2019-03-05T08:47:13.136Z,1.02
2019-03-05T08:49:42.493Z,0.80
2019-03-05T08:52:11.898Z,0.82
2019-03-05T08:54:41.285Z,0.65
2019-03-05T08:57:11.454Z,1.20
2019-03-05T08:59:40.803Z,0.80
2019-03-05T09:02:10.147Z,0.72
2019-03-05T09:04:39.488Z,0.68
2019-03-05T09:07:09.064Z,1.10
2019-03-05T09:09:38.404Z,0.78
2019-03-05T09:12:07.812Z,1.30
2019-03-05T09:14:37.151Z,0.98
2019-03-05T09:17:06.883Z,0.90
2019-03-05T09:19:36.287Z,1.35
2019-03-05T09:22:05.711Z,1.30
2019-03-05T09:24:35.333Z,0.93
2019-03-05T09:27:04.767Z,0.75
2019-03-05T09:29:34.334Z,0.90
2019-03-05T09:32:03.672Z,0.72
2019-03-05T09:34:33.022Z,1.87
2019-03-05T09:37:02.387Z,0.82
2019-03-05T09:39:31.732Z,0.80
2019-03-05T09:42:01.143Z,1.10
2019-03-05T09:44:30.503Z,1.12
2019-03-05T09:47:00.388Z,0.60
2019-03-05T09:49:29.963Z,0.90
2019-03-05T09:51:59.291Z,0.60
2019-03-05T09:54:28.950Z,1.27
2019-03-05T09:56:57.655Z,1.25
2019-03-05T09:59:26.382Z,0.70
2019-03-05T10:01:56.114Z,1.15
2019-03-05T10:04:25.814Z,1.05
2019-03-05T10:06:54.612Z,0.50
2019-03-05T10:09:25.814Z,0.62
2019-03-05T10:11:56.845Z,0.90
2019-03-05T10:14:25.436Z,0.88
2019-03-05T10:16:54.762Z,0.80
2019-03-05T10:19:24.098Z,1.27
2019-03-05T10:21:53.440Z,0.80
2019-03-05T10:24:22.847Z,0.90
2019-03-05T10:26:52.416Z,0.93
2019-03-05T10:29:22.038Z,0.80
2019-03-05T10:31:51.379Z,0.88
2019-03-05T10:34:20.722Z,1.42
2019-03-05T10:36:49.470Z,1.30
2019-03-05T10:39:30.342Z,0.70
2019-03-05T10:41:54.347Z,1.20
2019-03-05T10:44:23.060Z,1.00
2019-03-05T10:46:51.774Z,0.65
2019-03-05T10:49:21.938Z,1.02
2019-03-05T10:51:50.903Z,1.10
2019-03-05T10:54:19.655Z,1.67
2019-03-05T10:56:48.375Z,0.82
2019-03-05T10:59:17.707Z,0.98
2019-03-05T11:01:49.087Z,0.60
2019-03-05T11:04:18.646Z,0.80
2019-03-05T11:06:48.118Z,0.90
2019-03-05T11:09:19.787Z,0.98
2019-03-05T11:11:49.244Z,0.70
2019-03-05T11:14:18.567Z,1.00
2019-03-05T11:16:49.970Z,0.60
2019-03-05T11:19:19.535Z,1.17
2019-03-05T11:21:48.951Z,0.78
2019-03-05T11:24:18.286Z,1.40
2019-03-05T11:26:47.694Z,1.67
2019-03-05T11:29:17.109Z,0.88
2019-03-05T11:31:46.443Z,0.88
2019-03-05T11:34:16.184Z,0.88
2019-03-05T11:36:45.725Z,1.40
2019-03-05T11:39:15.626Z,0.80
2019-03-05T11:41:44.964Z,1.47
2019-03-05T11:44:14.301Z,0.70
2019-03-05T11:46:43.739Z,0.75
2019-03-05T11:49:13.070Z,0.93
2019-03-05T11:51:42.666Z,0.80
2019-03-05T11:54:12.019Z,0.95
2019-03-05T11:56:41.555Z,0.90
2019-03-05T11:59:10.898Z,1.37
2019-03-05T12:01:46.187Z,1.05
2019-03-05T12:04:15.807Z,0.88
2019-03-05T12:06:45.441Z,0.60
2019-03-05T12:09:14.992Z,1.40
2019-03-05T12:11:44.582Z,0.65
2019-03-05T12:14:13.935Z,0.90
2019-03-05T12:16:43.273Z,0.98
2019-03-05T12:19:12.605Z,1.00
2019-03-05T12:21:42.194Z,1.47
2019-03-05T12:24:11.542Z,1.07
2019-03-05T12:26:40.884Z,1.00
2019-03-05T12:29:10.218Z,1.10
2019-03-05T12:31:39.550Z,0.70
2019-03-05T12:34:09.216Z,0.70
2019-03-05T12:36:38.610Z,0.90
2019-03-05T12:39:09.715Z,1.25
2019-03-05T12:41:38.592Z,0.72
2019-03-05T12:44:07.398Z,0.70
2019-03-05T12:46:36.136Z,2.05
2019-03-05T12:49:05.162Z,1.27
2019-03-05T12:51:33.868Z,1.35
2019-03-05T12:54:21.619Z,0.85
2019-03-05T12:56:50.311Z,1.10
2019-03-05T12:59:19.010Z,0.72
2019-03-05T13:01:47.719Z,0.95
2019-03-05T13:04:16.414Z,0.93
2019-03-05T13:06:45.130Z,0.80
2019-03-05T13:09:17.740Z,1.72
2019-03-05T13:11:49.875Z,2.22
2019-03-05T13:14:17.714Z,1.00
2019-03-05T13:16:46.427Z,0.70
2019-03-05T13:19:15.122Z,0.98
2019-03-05T13:21:44.252Z,0.75
2019-03-05T13:24:15.106Z,0.90
2019-03-05T13:26:45.016Z,1.65
2019-03-05T13:29:19.204Z,0.90
2019-03-05T13:31:45.484Z,0.65
2019-03-05T13:34:17.674Z,0.60
2019-03-05T13:36:46.893Z,1.05
2019-03-05T13:39:18.087Z,1.20
2019-03-05T13:41:50.429Z,0.90
2019-03-05T13:44:36.985Z,0.90
2019-03-05T13:47:06.766Z,0.95
2019-03-05T13:50:13.295Z,1.22
2019-03-05T13:53:22.537Z,1.00
2019-03-05T13:56:32.552Z,0.80
2019-03-05T13:59:37.565Z,0.60
2019-03-05T14:02:06.896Z,0.60
2019-03-05T14:04:57.784Z,1.05
2019-03-05T14:07:44.507Z,0.60
2019-03-05T14:10:13.381Z,1.45
2019-03-05T14:12:42.367Z,1.00
2019-03-05T14:15:11.471Z,0.80
2019-03-05T14:17:42.581Z,0.80
2019-03-05T14:20:13.065Z,0.90
2019-03-05T14:22:41.799Z,1.30
2019-03-05T14:25:11.970Z,0.60
2019-03-05T14:27:40.659Z,1.10
2019-03-05T14:30:11.303Z,0.85
2019-03-05T14:32:40.122Z,1.55
2019-03-05T14:35:10.500Z,1.95
2019-03-05T14:37:39.274Z,0.80
2019-03-05T14:40:23.694Z,1.65
2019-03-05T14:42:39.929Z,0.95
2019-03-05T14:45:10.463Z,0.60
2019-03-05T14:47:39.183Z,0.70
2019-03-05T14:50:08.381Z,0.82
2019-03-05T14:52:37.179Z,1.32
2019-03-05T14:55:06.760Z,1.00
2019-03-05T14:57:35.533Z,1.20
2019-03-05T15:00:05.028Z,0.85
2019-03-05T15:02:33.903Z,0.80
2019-03-05T15:05:02.724Z,1.00
2019-03-05T15:07:31.473Z,0.82
2019-03-05T15:10:00.451Z,0.70
2019-03-05T15:12:29.279Z,1.00
2019-03-05T15:14:58.292Z,0.90
2019-03-05T15:17:27.084Z,0.80
2019-03-05T15:19:56.513Z,0.70
2019-03-05T15:22:25.594Z,0.70
2019-03-05T15:24:54.396Z,0.78
2019-03-05T15:27:23.225Z,0.53
2019-03-05T15:29:51.977Z,0.98
2019-03-05T15:32:20.699Z,0.80
2019-03-05T15:34:49.505Z,0.55
2019-03-05T15:37:18.297Z,0.65
2019-03-05T15:39:47.055Z,0.85
2019-03-05T15:42:15.842Z,1.07
2019-03-05T15:44:44.569Z,0.70
2019-03-05T15:47:13.281Z,1.02
2019-03-05T15:49:42.135Z,0.60
2019-03-05T15:52:10.899Z,0.80
2019-03-05T15:54:39.611Z,0.90
2019-03-05T15:57:08.439Z,0.60
2019-03-05T15:59:37.229Z,0.90
2019-03-05T16:02:06.299Z,0.70
2019-03-05T16:04:35.869Z,0.95
2019-03-05T16:07:10.820Z,1.10
2019-03-05T16:09:39.341Z,1.07
2019-03-05T16:12:09.480Z,1.42
2019-03-05T16:14:38.261Z,0.60
2019-03-05T16:17:07.063Z,0.80
2019-03-05T16:19:35.770Z,1.22
2019-03-05T16:22:04.519Z,0.75
2019-03-05T16:27:03.731Z,0.55
2019-03-05T16:29:32.547Z,1.62
2019-03-05T16:32:17.539Z,0.72
2019-03-05T16:35:04.128Z,0.60
2019-03-05T16:37:54.885Z,0.80
2019-03-05T16:40:57.915Z,0.60
2019-03-05T16:43:40.064Z,0.60
2019-03-05T16:46:30.399Z,0.55
2019-03-05T16:48:18.855Z,0.50
2019-03-05T16:49:30.184Z,0.60
2019-03-05T16:52:07.152Z,0.60
2019-03-05T16:54:48.403Z,0.98
2019-03-05T16:57:23.279Z,0.98
2019-03-05T17:00:29.058Z,0.55
2019-03-05T17:03:17.287Z,0.50
2019-03-05T17:06:05.409Z,0.80
2019-03-05T17:09:02.327Z,0.95
2019-03-05T17:11:48.710Z,0.50
2019-03-05T17:14:17.446Z,0.98
2019-03-05T17:16:46.155Z,0.75
2019-03-05T17:19:14.943Z,1.10
2019-03-05T17:21:43.670Z,0.85
2019-03-05T17:24:12.556Z,0.70
2019-03-05T17:26:41.278Z,0.60
2019-03-05T17:29:09.986Z,0.70
2019-03-05T17:31:38.703Z,0.80
2019-03-05T17:34:07.418Z,0.72
2019-03-05T17:36:55.259Z,0.57
2019-03-05T17:39:26.819Z,0.60
2019-03-05T17:41:55.587Z,0.60
2019-03-05T17:44:24.290Z,1.10
2019-03-05T17:47:00.822Z,1.00
2019-03-05T17:49:29.545Z,0.65
2019-03-05T17:51:58.331Z,0.68
2019-03-05T17:54:27.102Z,0.75
2019-03-05T17:56:56.170Z,0.68
2019-03-05T17:59:24.902Z,2.05
2019-03-05T18:01:53.611Z,0.80
2019-03-05T18:04:22.310Z,0.70
2019-03-05T18:06:51.023Z,0.93
2019-03-05T18:09:19.946Z,0.70
2019-03-05T18:11:48.643Z,0.65
2019-03-05T18:14:17.342Z,0.80
2019-03-05T18:16:46.050Z,1.92
2019-03-05T18:19:14.843Z,1.22
2019-03-05T18:21:43.549Z,1.42
2019-03-05T18:24:12.326Z,0.90
2019-03-05T18:26:41.091Z,1.00
2019-03-05T18:29:09.779Z,0.90
2019-03-05T18:31:38.565Z,0.70
2019-03-05T18:34:07.340Z,0.60
2019-03-05T18:36:36.040Z,1.07
2019-03-05T18:39:05.766Z,0.80
2019-03-05T18:41:34.561Z,0.70
2019-03-05T18:44:04.638Z,0.72
2019-03-05T18:46:33.375Z,1.00
2019-03-05T18:49:02.082Z,0.68
2019-03-05T18:51:30.786Z,0.72
2019-03-05T18:53:59.494Z,0.62
2019-03-05T18:56:28.202Z,0.60
2019-03-05T18:58:56.915Z,0.55
2019-03-05T19:01:25.643Z,0.57
2019-03-05T19:03:54.379Z,0.80
2019-03-05T19:06:23.485Z,0.95
2019-03-05T19:08:52.307Z,0.72
2019-03-05T19:11:21.079Z,1.15
2019-03-05T19:13:49.774Z,1.62
2019-03-05T19:16:18.490Z,1.30
2019-03-05T19:18:47.270Z,1.10
2019-03-05T19:21:15.985Z,0.88
2019-03-05T19:23:44.779Z,0.95
2019-03-05T19:26:13.998Z,0.55
2019-03-05T19:28:42.724Z,0.70
2019-03-05T19:31:11.478Z,1.00
2019-03-05T19:33:40.187Z,0.80
2019-03-05T19:36:08.964Z,0.50
2019-03-05T19:38:37.755Z,1.20
2019-03-05T19:41:06.571Z,1.00
2019-03-05T19:43:35.304Z,6.17
2019-03-05T19:46:04.197Z,2.70
2019-03-05T19:48:32.982Z,2.17
2019-03-05T19:51:01.755Z,1.25
2019-03-05T19:53:30.550Z,1.60
2019-03-05T19:55:59.255Z,1.17
2019-03-05T19:58:27.970Z,1.20
2019-03-05T20:01:05.276Z,1.42
2019-03-05T20:03:34.073Z,0.90
2019-03-05T20:06:02.874Z,2.00
2019-03-05T20:08:39.517Z,1.37
2019-03-05T20:11:02.016Z,1.50
2019-03-05T20:13:30.832Z,0.95
2019-03-05T20:15:59.926Z,0.72
2019-03-05T20:18:28.712Z,1.02
2019-03-05T20:20:57.495Z,1.02
2019-03-05T20:23:26.379Z,1.25
2019-03-05T20:25:55.235Z,1.42
2019-03-05T20:28:24.018Z,0.70
2019-03-05T20:30:52.803Z,0.65
2019-03-05T20:33:40.683Z,1.62
2019-03-05T20:36:09.431Z,1.67
2019-03-05T20:38:38.229Z,1.90
2019-03-05T20:41:06.998Z,1.60
2019-03-05T20:43:35.748Z,0.95
2019-03-05T20:46:09.642Z,0.80
2019-03-05T20:48:38.434Z,1.10
2019-03-05T20:51:07.190Z,1.80
2019-03-05T20:53:35.939Z,0.80
2019-03-05T20:56:04.714Z,1.00
2019-03-05T20:58:33.490Z,1.87
2019-03-05T21:01:03.272Z,0.95
2019-03-05T21:03:32.055Z,0.90
2019-03-05T21:06:00.830Z,1.55
2019-03-05T21:08:29.616Z,0.70
2019-03-05T21:10:58.375Z,1.00
2019-03-05T21:13:27.167Z,0.90
2019-03-05T21:15:55.867Z,0.60
2019-03-05T21:18:24.599Z,1.15
2019-03-05T21:20:53.299Z,1.27
2019-03-05T21:23:22.094Z,1.12
2019-03-05T21:25:50.875Z,1.40
2019-03-05T21:28:19.574Z,0.60
2019-03-05T21:30:48.274Z,0.85
2019-03-05T21:33:16.970Z,0.85
2019-03-05T21:35:45.671Z,1.02
2019-03-05T21:38:14.453Z,0.85
2019-03-05T21:40:43.222Z,1.10
2019-03-05T21:43:11.931Z,0.88
2019-03-05T21:45:40.671Z,1.02
2019-03-05T21:48:09.456Z,0.75
2019-03-05T21:50:38.259Z,1.52
2019-03-05T21:53:26.006Z,1.47
2019-03-05T21:55:55.087Z,1.10
2019-03-05T21:58:23.878Z,1.07
2019-03-05T22:00:52.583Z,0.80
2019-03-05T22:03:21.289Z,0.95
2019-03-05T22:05:50.058Z,1.70
2019-03-05T22:08:19.031Z,0.70
2019-03-05T22:10:47.727Z,0.90
2019-03-05T22:13:16.423Z,0.68
2019-03-05T22:15:45.186Z,0.78
2019-03-05T22:18:14.084Z,0.70
2019-03-05T22:20:43.279Z,1.20
2019-03-05T22:23:11.994Z,0.62
2019-03-05T22:25:40.769Z,0.90
2019-03-05T22:28:09.550Z,0.80
2019-03-05T22:30:38.826Z,0.88
2019-03-05T22:33:08.321Z,0.70
2019-03-05T22:35:37.103Z,1.00
2019-03-05T22:38:05.916Z,1.72
2019-03-05T22:40:34.701Z,1.50
2019-03-05T22:43:03.426Z,0.82
2019-03-05T22:45:32.553Z,0.75
2019-03-05T22:48:01.335Z,0.70
2019-03-05T22:50:30.066Z,0.70
2019-03-05T22:52:58.827Z,0.53
2019-03-05T22:55:27.534Z,1.10
2019-03-05T22:57:57.071Z,0.60
2019-03-05T23:00:50.067Z,0.60
2019-03-05T23:03:19.624Z,0.93
2019-03-05T23:05:48.718Z,1.72
2019-03-05T23:08:17.822Z,0.78
2019-03-05T23:10:46.530Z,1.15
2019-03-05T23:13:16.823Z,0.70
2019-03-05T23:15:45.526Z,1.72
2019-03-05T23:18:14.499Z,0.70
2019-03-05T23:20:43.235Z,1.12
2019-03-05T23:23:11.987Z,1.80
2019-03-05T23:25:40.791Z,1.37
2019-03-05T23:28:09.566Z,0.50
2019-03-05T23:30:38.757Z,1.32
2019-03-05T23:33:07.534Z,0.82
2019-03-05T23:35:36.339Z,1.07
2019-03-05T23:38:24.162Z,2.50
2019-03-05T23:40:52.857Z,1.02
2019-03-05T23:43:21.622Z,1.22
2019-03-05T23:45:50.395Z,0.98
2019-03-05T23:48:19.187Z,0.80
2019-03-05T23:50:47.878Z,1.12
2019-03-05T23:56:17.714Z,4.55
2019-03-05T23:58:46.414Z,2.72
